Time;durP1;ratioP1;P1;durP2;ratioP2;P2;SDS_P1;SDS_P2;PMS_P1;PMS_P2;Temp;Humidity;BMP_temperature;BMP_pressure;BME280_temperature;BME280_humidity;BME280_pressure;Samples;Min_cycle;Max_cycle;Signal;HPM_P1;HPM_P2
2023/06/20 00:02:49;;;;;;;;;9.00;9.00;;;;;22.19;58.00;100944.59;146605;586;46014;-69
2023/06/20 00:05:51;;;;;;;;;9.00;7.33;;;;;22.17;58.20;100946.34;146610;572;46020;-70
2023/06/20 00:08:51;;;;;;;;;7.50;7.25;;;;;22.07;58.41;100938.31;146604;646;46014;-70
2023/06/20 00:11:50;;;;;;;;;9.50;8.50;;;;;21.98;58.23;100940.00;146608;591;46020;-70
2023/06/20 00:14:43;;;;;;;;;6.75;6.75;;;;;21.90;58.79;100934.69;146605;670;46017;-69
2023/06/20 00:17:36;;;;;;;;;7.00;6.67;;;;;21.87;59.28;100940.81;146609;575;46020;-68
2023/06/20 00:20:40;;;;;;;;;7.67;7.00;;;;;21.82;58.87;100945.16;146606;570;46016;-68
2023/06/20 00:23:36;;;;;;;;;7.00;6.00;;;;;21.76;59.07;100945.09;146609;594;46020;-69
2023/06/20 00:26:56;;;;;;;;;;;;;;;;;;;;;
2023/06/20 00:29:59;;;;;;;;;6.67;5.33;;;;;21.64;59.09;100951.13;146608;574;46021;-72
2023/06/20 00:33:03;;;;;;;;;6.00;5.67;;;;;21.59;59.20;100941.44;146605;618;46016;-72
2023/06/20 00:36:00;;;;;;;;;9.67;9.00;;;;;21.57;59.86;100944.03;146607;630;47011;-72
2023/06/20 00:39:04;;;;;;;;;7.33;6.67;;;;;21.58;60.00;100939.63;146606;593;46916;-71
2023/06/20 00:41:59;;;;;;;;;7.33;7.33;;;;;21.56;59.83;100938.75;146608;649;46020;-72
2023/06/20 00:44:54;;;;;;;;;7.00;7.00;;;;;21.48;60.03;100937.78;146607;578;46013;-73
2023/06/20 00:47:55;;;;;;;;;7.00;7.00;;;;;21.45;60.11;100931.59;146611;587;46010;-73
2023/06/20 00:51:06;;;;;;;;;10.00;8.00;;;;;21.39;59.96;100938.56;146608;597;46012;-74
2023/06/20 00:54:14;;;;;;;;;8.33;7.67;;;;;20.22;60.39;100736.06;146609;578;47010;-74
2023/06/20 00:57:17;;;;;;;;;11.25;8.25;;;;;21.37;60.80;100929.75;146604;600;46012;-72
2023/06/20 01:00:19;;;;;;;;;12.00;9.00;;;;;21.33;61.25;100930.56;146606;589;46021;-73
2023/06/20 01:03:15;;;;;;;;;8.00;7.67;;;;;21.25;60.82;100935.78;146608;565;46012;-74
2023/06/20 01:06:53;;;;;;;;;9.00;8.33;;;;;19.34;59.47;100634.88;146610;597;46010;-75
2023/06/20 01:10:20;;;;;;;;;8.00;7.00;;;;;19.42;59.96;100649.88;146606;642;46016;-70
2023/06/20 01:14:08;;;;;;;;;10.67;8.33;;;;;21.14;59.65;100926.84;146608;606;46021;-70
2023/06/20 01:17:52;;;;;;;;;8.00;8.00;;;;;21.02;59.51;100946.03;146605;593;46016;-70
2023/06/20 01:21:08;;;;;;;;;11.00;9.00;;;;;20.97;60.29;100932.81;146608;653;47010;-70
2023/06/20 01:24:34;;;;;;;;;10.50;8.25;;;;;18.64;59.97;100536.59;146626;640;45016;-70
2023/06/20 01:28:33;;;;;;;;;11.00;9.00;;;;;20.94;61.14;100935.41;146630;591;45021;-71
2023/06/20 01:31:49;;;;;;;;;12.00;10.00;;;;;20.89;60.83;100929.19;146628;580;45012;-70
2023/06/20 01:35:12;;;;;;;;;12.50;10.00;;;;;18.63;62.20;100545.34;146628;659;45921;-70
2023/06/20 01:38:38;;;;;;;;;;;;;;;;;;;;;
2023/06/20 01:41:50;;;;;;;;;10.00;9.67;;;;;20.99;62.23;100933.69;146632;688;45010;-69
2023/06/20 01:45:00;;;;;;;;;8.67;8.67;;;;;21.04;62.28;100935.53;146626;618;45016;-69
2023/06/20 01:48:17;;;;;;;;;;;;;;;;;;;;;
2023/06/20 01:51:18;;;;;;;;;10.00;8.50;;;;;21.10;60.79;100930.31;146626;696;45017;-71
2023/06/20 01:54:34;;;;;;;;;;;;;;;;;;;;;
2023/06/20 01:57:33;;;;;;;;;8.00;8.00;;;;;21.10;60.40;100925.94;146625;598;45916;-71
2023/06/20 02:00:38;;;;;;;;;11.00;8.75;;;;;21.11;60.84;100926.81;146629;600;46029;-70
2023/06/20 02:03:56;;;;;;;;;9.00;8.67;;;;;21.10;60.44;100930.31;146626;659;46014;-68
2023/06/20 02:07:06;;;;;;;;;8.25;8.00;;;;;21.13;60.17;100938.28;146627;564;46021;-69
2023/06/20 02:10:10;;;;;;;;;11.00;9.50;;;;;21.15;60.87;100939.16;146626;633;45016;-69
2023/06/20 02:13:04;;;;;;;;;10.00;8.75;;;;;21.13;61.28;100944.41;146628;705;45029;-69
2023/06/20 02:16:15;;;;;;;;;10.75;10.75;;;;;21.12;60.71;100941.75;146626;702;46917;-69
2023/06/20 02:19:17;;;;;;;;;10.75;9.00;;;;;21.04;60.55;100944.31;146630;583;45010;-69
2023/06/20 02:22:11;;;;;;;;;7.50;7.50;;;;;20.99;60.90;100943.38;146623;609;46016;-70
2023/06/20 02:25:14;;;;;;;;;9.25;7.00;;;;;20.92;61.18;100950.31;146606;619;46020;-69
2023/06/20 02:28:22;;;;;;;;;7.33;6.33;;;;;20.81;61.21;100953.66;146606;694;46014;-71
2023/06/20 02:31:35;;;;;;;;;11.00;10.25;;;;;20.70;61.45;100958.81;146609;613;45020;-69
2023/06/20 02:34:38;;;;;;;;;8.00;6.33;;;;;20.55;62.77;100951.56;146606;564;46012;-71
2023/06/20 02:37:41;;;;;;;;;9.00;8.25;;;;;20.43;61.95;100951.38;146606;569;46023;-70
2023/06/20 02:40:59;;;;;;;;;9.00;7.50;;;;;20.35;62.27;100953.91;146604;654;47012;-68
2023/06/20 02:43:57;;;;;;;;;9.75;8.25;;;;;20.26;62.41;100951.13;146609;672;46020;-69
2023/06/20 02:47:28;;;;;;;;;9.67;9.67;;;;;20.19;62.09;100958.03;146607;563;47012;-69
2023/06/20 02:50:47;;;;;;;;;10.00;8.75;;;;;20.14;62.84;100957.06;146607;579;46021;-68
2023/06/20 02:54:11;;;;;;;;;9.00;8.00;;;;;20.11;62.29;100958.78;146601;716;46016;-69
2023/06/20 02:57:08;;;;;;;;;9.00;8.50;;;;;20.08;63.39;100968.38;146607;583;46021;-68
2023/06/20 03:00:09;;;;;;;;;9.50;7.00;;;;;20.09;62.76;100971.91;146603;593;46016;-69
2023/06/20 03:03:24;;;;;;;;;9.75;8.25;;;;;20.17;62.35;100959.75;146608;584;46020;-70
2023/06/20 03:06:39;;;;;;;;;10.00;8.75;;;;;20.16;63.44;100962.37;146604;693;46017;-71
2023/06/20 03:09:37;;;;;;;;;7.75;7.50;;;;;20.10;63.24;100965.78;146607;579;46010;-72
2023/06/20 03:12:39;;;;;;;;;11.50;10.25;;;;;20.02;62.84;100968.28;146604;621;46017;-69
2023/06/20 03:15:38;;;;;;;;;8.75;7.25;;;;;19.96;63.60;100973.44;146606;563;47030;-69
2023/06/20 03:18:37;;;;;;;;;11.50;10.00;;;;;19.95;63.50;100968.16;146606;591;46024;-68
2023/06/20 03:21:30;;;;;;;;;9.25;9.25;;;;;19.94;64.10;100971.69;146605;614;46020;-69
2023/06/20 03:24:31;;;;;;;;;8.75;8.00;;;;;19.91;63.56;100977.78;146605;611;46016;-69
2023/06/20 03:27:23;;;;;;;;;9.25;8.25;;;;;19.91;63.58;100969.00;146609;581;46010;-70
2023/06/20 03:30:39;;;;;;;;;6.00;6.00;;;;;19.92;64.23;100974.25;146607;609;46917;-69
2023/06/20 03:33:49;;;;;;;;;10.00;9.00;;;;;19.98;63.46;100976.13;146607;672;46020;-71
2023/06/20 03:36:41;;;;;;;;;11.50;11.00;;;;;20.02;63.87;100977.94;146603;580;46014;-71
2023/06/20 03:39:37;;;;;;;;;10.25;10.25;;;;;20.08;64.22;100983.31;146605;597;46020;-70
2023/06/20 03:42:41;;;;;;;;;12.75;12.00;;;;;20.13;64.13;100981.66;146603;570;46016;-70
2023/06/20 03:45:33;;;;;;;;;9.25;8.75;;;;;20.18;64.48;100984.34;146609;706;46010;-70
2023/06/20 03:48:36;;;;;;;;;15.00;13.50;;;;;20.16;64.86;100979.06;146604;581;46915;-70
2023/06/20 03:52:01;;;;;;;;;11.25;9.25;;;;;20.15;65.02;100986.91;146608;569;47010;-70
2023/06/20 03:54:55;;;;;;;;;10.50;8.50;;;;;20.18;65.26;100986.97;146603;606;46016;-71
2023/06/20 03:58:03;;;;;;;;;;;;;;;;;;;;;
2023/06/20 04:00:58;;;;;;;;;12.75;11.75;;;;;20.20;64.81;101004.56;146605;665;46018;-70
2023/06/20 04:04:02;;;;;;;;;13.75;11.50;;;;;20.24;65.10;100992.34;146606;565;46010;-71
2023/06/20 04:06:57;;;;;;;;;12.25;11.00;;;;;20.28;64.34;100989.78;146605;572;47012;-71
2023/06/20 04:10:18;;;;;;;;;8.25;8.25;;;;;20.40;64.06;100994.34;146605;664;46020;-71
2023/06/20 04:13:23;;;;;;;;;12.25;10.25;;;;;20.64;62.58;101000.88;146606;678;46016;-71
2023/06/20 04:16:33;;;;;;;;;11.00;10.75;;;;;20.85;62.87;101000.31;146608;565;46020;-71
2023/06/20 04:19:36;;;;;;;;;11.50;10.25;;;;;21.01;61.69;100998.75;146606;649;46017;-71
2023/06/20 04:22:31;;;;;;;;;11.00;11.00;;;;;21.21;61.83;100998.16;146606;622;46020;-71
2023/06/20 04:25:50;;;;;;;;;13.25;12.00;;;;;21.50;61.72;101000.25;146607;573;46012;-71
2023/06/20 04:28:44;;;;;;;;;13.00;10.75;;;;;21.75;60.60;101006.69;146607;566;46020;-71
2023/06/20 04:31:43;;;;;;;;;11.00;11.00;;;;;22.02;61.11;101010.44;146606;582;46016;-71
2023/06/20 04:34:46;;;;;;;;;13.50;12.25;;;;;22.27;59.76;101014.19;146609;594;46021;-71
2023/06/20 04:38:01;;;;;;;;;;;;;;;;;;;;;
2023/06/20 04:41:05;;;;;;;;;11.75;11.00;;;;;22.72;59.24;101005.72;146605;716;46020;-69
2023/06/20 04:44:06;;;;;;;;;11.25;11.00;;;;;23.00;59.30;101019.13;146602;607;46016;-69
2023/06/20 04:47:02;;;;;;;;;12.25;11.25;;;;;23.23;57.57;101013.94;146606;569;46012;-69
2023/06/20 04:50:02;;;;;;;;;11.50;11.50;;;;;23.42;57.55;101014.88;146607;630;46014;-70
2023/06/20 04:52:56;;;;;;;;;12.50;11.00;;;;;23.59;56.84;101013.16;146607;717;46028;-74
2023/06/20 04:56:27;;;;;;;;;13.75;11.00;;;;;23.82;57.08;101023.84;146604;622;46017;-71
2023/06/20 04:59:44;;;;;;;;;14.00;13.25;;;;;24.03;56.79;101024.75;146605;664;46020;-70
2023/06/20 05:02:58;;;;;;;;;13.75;13.00;;;;;24.25;56.62;101036.25;146605;655;46017;-70
2023/06/20 05:05:51;;;;;;;;;15.50;13.00;;;;;24.41;56.27;101027.37;146610;625;46010;-70
2023/06/20 05:09:08;;;;;;;;;15.25;13.50;;;;;24.54;55.65;101037.13;146601;593;46016;-68
2023/06/20 05:12:23;;;;;;;;;16.50;14.50;;;;;22.75;55.40;100706.16;146605;564;46011;-66
2023/06/20 05:15:24;;;;;;;;;16.75;15.00;;;;;24.87;56.07;101033.53;146605;571;46016;-67
2023/06/20 05:18:26;;;;;;;;;16.50;15.00;;;;;25.08;56.22;101045.84;146607;573;46020;-70
2023/06/20 05:21:27;;;;;;;;;12.75;12.00;;;;;25.29;55.86;101034.28;146604;604;46012;-69
2023/06/20 05:24:46;;;;;;;;;15.50;14.00;;;;;25.44;52.73;101036.00;146630;650;45010;-69
2023/06/20 05:28:19;;;;;;;;;15.50;13.75;;;;;25.51;53.76;101039.50;146627;579;45919;-71
2023/06/20 05:31:24;;;;;;;;;12.50;12.00;;;;;25.58;54.00;101046.56;146624;598;46020;-69
2023/06/20 05:34:38;;;;;;;;;14.00;13.00;;;;;24.37;54.22;100827.75;146625;742;46016;-69
2023/06/20 05:37:31;;;;;;;;;15.25;14.25;;;;;25.69;54.46;101042.06;146631;666;45010;-69
2023/06/20 05:40:39;;;;;;;;;;;;;;;;;;;;;
2023/06/20 05:43:41;;;;;;;;;12.50;12.50;;;;;25.80;54.20;101052.62;146628;578;46010;-70
2023/06/20 05:46:39;;;;;;;;;14.75;11.75;;;;;25.82;54.23;101042.91;146625;727;45918;-69
2023/06/20 05:49:37;;;;;;;;;15.67;13.33;;;;;25.87;54.29;101050.84;146629;631;46010;-70
2023/06/20 05:52:55;;;;;;;;;13.00;12.00;;;;;25.92;55.02;101052.59;146627;565;46012;-68
2023/06/20 05:55:59;;;;;;;;;12.00;11.75;;;;;26.01;54.74;101057.84;146627;617;45020;-70
2023/06/20 05:59:09;;;;;;;;;14.00;14.00;;;;;26.12;55.75;101056.88;146622;602;45016;-69
2023/06/20 06:02:15;;;;;;;;;12.25;11.25;;;;;26.16;55.15;101053.28;146627;693;45020;-69
2023/06/20 06:05:12;;;;;;;;;14.50;11.00;;;;;26.23;55.24;101055.91;146615;572;47016;-70
2023/06/20 06:08:10;;;;;;;;;14.00;11.25;;;;;26.34;55.19;101046.94;146630;702;45031;-71
2023/06/20 06:11:09;;;;;;;;;14.00;13.50;;;;;26.44;54.83;101041.53;146625;625;45016;-69
2023/06/20 06:14:13;;;;;;;;;10.75;10.75;;;;;26.59;55.34;101053.84;146624;599;46010;-69
2023/06/20 06:17:32;;;;;;;;;11.00;9.50;;;;;26.77;55.06;101054.56;146626;612;46014;-70
2023/06/20 06:20:31;;;;;;;;;11.33;11.33;;;;;26.97;54.78;101049.88;146630;643;46010;-70
2023/06/20 06:23:33;;;;;;;;;13.67;11.67;;;;;27.16;53.40;101042.59;146610;613;46016;-71
2023/06/20 06:26:48;;;;;;;;;13.75;12.75;;;;;27.29;52.81;101038.00;146607;623;46030;-71
2023/06/20 06:29:58;;;;;;;;;11.75;11.50;;;;;27.35;52.94;101051.25;146605;676;46017;-69
2023/06/20 06:32:57;;;;;;;;;12.75;12.00;;;;;27.40;51.94;101049.41;146607;686;46020;-70
2023/06/20 06:35:55;;;;;;;;;12.25;12.00;;;;;27.44;51.55;101042.25;146606;663;46013;-70
2023/06/20 06:38:51;;;;;;;;;13.75;13.25;;;;;27.45;51.08;101038.72;146606;616;46010;-70
2023/06/20 06:41:57;;;;;;;;;15.75;14.00;;;;;27.48;51.78;101041.34;146606;694;46016;-72
2023/06/20 06:44:53;;;;;;;;;11.75;11.75;;;;;27.54;50.13;101039.47;146606;731;46010;-73
2023/06/20 06:48:10;;;;;;;;;16.00;13.25;;;;;27.61;49.48;101040.25;146603;687;46012;-69
2023/06/20 06:51:25;;;;;;;;;14.75;14.25;;;;;27.71;50.24;101043.66;146609;684;46010;-68
2023/06/20 06:54:29;;;;;;;;;12.75;12.25;;;;;27.85;48.75;101042.59;146606;678;46012;-72
2023/06/20 06:57:27;;;;;;;;;15.50;13.00;;;;;28.00;50.51;101040.59;146609;564;46010;-71
2023/06/20 07:00:29;;;;;;;;;10.67;10.67;;;;;28.13;49.67;101041.25;146604;586;46016;-71
2023/06/20 07:03:31;;;;;;;;;12.00;11.00;;;;;28.32;48.49;101042.75;146608;635;46020;-71
2023/06/20 07:06:31;;;;;;;;;14.33;12.00;;;;;28.46;49.68;101042.53;146605;662;46016;-71
2023/06/20 07:09:27;;;;;;;;;11.33;11.33;;;;;28.66;48.76;101044.81;146607;592;46020;-71
2023/06/20 07:12:26;;;;;;;;;15.00;13.00;;;;;28.76;47.84;101038.44;146604;620;46015;-71
2023/06/20 07:15:42;;;;;;;;;11.25;10.00;;;;;27.09;48.17;100772.06;146608;707;46010;-71
2023/06/20 07:18:35;;;;;;;;;12.00;11.00;;;;;28.77;47.18;101042.84;146606;580;46016;-71
2023/06/20 07:21:31;;;;;;;;;12.33;12.00;;;;;28.74;46.81;101040.22;146609;575;46021;-70
2023/06/20 07:24:32;;;;;;;;;12.50;12.50;;;;;28.71;47.75;101035.84;146603;679;46016;-71
2023/06/20 07:27:33;;;;;;;;;10.33;10.33;;;;;28.72;45.78;101042.03;146608;607;46020;-70
2023/06/20 07:30:36;;;;;;;;;12.50;11.75;;;;;28.68;47.64;101037.69;146605;712;46017;-71
2023/06/20 07:33:29;;;;;;;;;12.00;10.67;;;;;28.67;45.86;101042.16;146609;593;46010;-72
2023/06/20 07:36:36;;;;;;;;;11.00;9.50;;;;;28.73;48.23;101050.03;146604;612;46041;-72
2023/06/20 07:39:32;;;;;;;;;12.75;12.25;;;;;28.79;45.54;101049.03;146601;609;46915;-71
2023/06/20 07:42:39;;;;;;;;;10.00;10.00;;;;;28.84;47.99;101047.16;146604;675;46016;-71
2023/06/20 07:45:46;;;;;;;;;8.25;8.25;;;;;28.90;44.65;101047.03;146607;650;46010;-70
2023/06/20 07:48:48;;;;;;;;;;;;;;;;;;;;;
2023/06/20 07:51:45;;;;;;;;;11.67;10.33;;;;;29.13;43.83;101049.28;146609;628;47010;-73
2023/06/20 07:54:39;;;;;;;;;11.33;9.67;;;;;29.30;44.21;101043.59;146606;613;46012;-70
2023/06/20 07:57:59;;;;;;;;;;;;;;;;;;;;;
2023/06/20 08:01:00;;;;;;;;;12.33;11.67;;;;;29.56;42.73;101047.47;146606;606;46016;-70
2023/06/20 08:03:56;;;;;;;;;12.00;11.00;;;;;29.60;42.85;101046.53;146604;631;47012;-70
2023/06/20 08:07:04;;;;;;;;;11.50;10.00;;;;;29.61;43.79;101040.28;146603;593;47012;-69
2023/06/20 08:10:17;;;;;;;;;9.50;9.50;;;;;29.65;42.17;101039.28;146606;602;46020;-70
2023/06/20 08:13:09;;;;;;;;;12.33;10.00;;;;;29.61;42.82;101035.81;146606;677;46013;-69
2023/06/20 08:16:02;;;;;;;;;12.33;11.00;;;;;29.62;43.37;101047.37;146605;569;46010;-70
2023/06/20 08:19:07;;;;;;;;;14.75;12.75;;;;;29.65;44.44;101039.28;146605;601;46012;-70
2023/06/20 08:22:02;;;;;;;;;10.00;10.00;;;;;29.67;44.69;101040.16;146607;570;46020;-70
2023/06/20 08:24:55;;;;;;;;;12.00;12.00;;;;;29.80;44.82;101041.63;146604;569;47012;-70
2023/06/20 08:27:54;;;;;;;;;10.50;10.50;;;;;29.97;43.36;101040.31;146603;673;47024;-70
2023/06/20 08:30:49;;;;;;;;;12.50;11.75;;;;;30.08;44.37;101036.47;146602;634;47014;-71
2023/06/20 08:33:51;;;;;;;;;;;;;;;;;;;;;
2023/06/20 08:36:45;;;;;;;;;12.00;11.00;;;;;30.23;43.73;101035.25;146607;693;47012;-71
2023/06/20 08:39:52;;;;;;;;;11.00;11.00;;;;;30.34;44.34;101038.56;146608;674;46010;-71
2023/06/20 08:42:50;;;;;;;;;10.50;10.25;;;;;30.41;42.85;101041.94;146601;573;46033;-71
2023/06/20 08:45:46;;;;;;;;;8.75;8.25;;;;;30.44;44.00;101035.62;146604;571;46020;-75
2023/06/20 08:48:48;;;;;;;;;10.50;10.50;;;;;30.44;43.17;101032.94;146600;629;47017;-71
2023/06/20 08:51:57;;;;;;;;;;;;;;;;;;;;;
2023/06/20 08:54:56;;;;;;;;;12.00;12.00;;;;;30.61;42.72;101034.25;146604;592;46014;-69
2023/06/20 08:58:03;;;;;;;;;11.00;9.00;;;;;30.71;41.68;101034.88;146607;580;46021;-70
2023/06/20 09:01:00;;;;;;;;;12.75;11.50;;;;;30.80;41.71;101031.09;146603;667;46016;-70
2023/06/20 09:03:57;;;;;;;;;14.50;13.00;;;;;30.89;42.21;101038.00;146605;628;47010;-70
2023/06/20 09:06:53;;;;;;;;;9.67;9.67;;;;;31.01;39.87;101024.28;146603;627;47012;-71
2023/06/20 09:10:00;;;;;;;;;7.33;7.33;;;;;31.13;37.05;101026.59;146609;577;46020;-70
2023/06/20 09:13:02;;;;;;;;;8.67;8.00;;;;;31.32;34.26;101018.91;146605;586;46915;-69
2023/06/20 09:16:08;;;;;;;;;9.00;7.00;;;;;31.47;38.18;101034.53;146608;593;46010;-70
2023/06/20 09:19:21;;;;;;;;;8.67;8.00;;;;;31.57;36.34;101021.72;146606;672;46017;-71
2023/06/20 09:22:25;;;;;;;;;7.00;7.00;;;;;31.74;33.51;101031.91;146610;597;46010;-71
2023/06/20 09:25:32;;;;;;;;;8.00;8.00;;;;;31.90;31.33;101024.28;146606;609;46012;-70
2023/06/20 09:28:41;;;;;;;;;5.67;4.00;;;;;32.02;31.80;101023.00;146610;571;46010;-71
2023/06/20 09:32:09;;;;;;;;;7.75;6.25;;;;;32.16;34.98;101034.16;146606;705;46016;-71
2023/06/20 09:35:18;;;;;;;;;12.00;9.00;;;;;30.54;30.92;100726.75;146608;580;46012;-70
2023/06/20 09:38:11;;;;;;;;;7.00;7.00;;;;;32.37;31.76;101030.75;146606;698;46014;-71
2023/06/20 09:41:06;;;;;;;;;11.00;9.33;;;;;32.48;31.55;101025.03;146608;565;46021;-71
2023/06/20 09:44:07;;;;;;;;;7.33;6.33;;;;;32.63;34.77;101018.25;146605;581;47013;-70
2023/06/20 09:46:55;;;;;;;;;8.75;8.75;;;;;32.71;34.12;101029.59;146708;567;47035;-69
2023/06/20 09:50:15;;;;;;;;;;;;;;;;;;;;;
2023/06/20 09:53:45;;;;;;;;;9.25;9.25;;;;;32.87;37.73;101021.88;146625;578;46012;-70
2023/06/20 09:56:57;;;;;;;;;8.00;8.00;;;;;33.00;33.18;101023.19;146621;693;47014;-70
2023/06/20 10:00:00;;;;;;;;;7.67;6.33;;;;;33.07;34.05;101016.66;146628;617;47010;-69
2023/06/20 10:03:04;;;;;;;;;9.75;8.75;;;;;33.14;34.58;101025.34;146620;579;46016;-70
2023/06/20 10:06:28;;;;;;;;;7.33;7.00;;;;;33.18;31.25;101027.00;146628;681;46020;-71
2023/06/20 10:09:37;;;;;;;;;9.00;8.00;;;;;33.20;34.80;101027.81;146618;564;47016;-70
2023/06/20 10:12:54;;;;;;;;;8.33;8.00;;;;;33.20;37.12;101027.81;146630;589;46020;-71
2023/06/20 10:15:59;;;;;;;;;6.67;6.67;;;;;33.15;28.41;101019.06;146618;573;46017;-71
2023/06/20 10:18:58;;;;;;;;;9.67;8.67;;;;;33.16;29.60;101025.31;146625;565;46020;-70
2023/06/20 10:22:09;;;;;;;;;8.67;8.67;;;;;33.20;34.85;101025.12;146620;591;47016;-72
2023/06/20 10:25:25;;;;;;;;;7.25;6.75;;;;;33.28;36.22;101035.59;146628;696;47020;-71
2023/06/20 10:28:43;;;;;;;;;7.67;7.67;;;;;33.26;30.97;101026.69;146625;628;46033;-72
2023/06/20 10:32:30;;;;;;;;;7.00;6.67;;;;;33.24;34.70;101029.47;146629;626;46020;-71
2023/06/20 10:35:34;;;;;;;;;8.67;8.67;;;;;32.46;29.50;100891.81;146620;570;47012;-69
2023/06/20 10:39:13;;;;;;;;;8.00;8.00;;;;;32.42;35.86;100885.66;146626;644;46021;-70
2023/06/20 10:42:34;;;;;;;;;8.33;7.33;;;;;33.32;33.44;101019.28;146620;569;46016;-71
2023/06/20 10:45:53;;;;;;;;;7.00;6.00;;;;;33.34;31.00;101021.91;146622;627;46021;-71
2023/06/20 10:48:46;;;;;;;;;8.33;8.33;;;;;32.54;29.92;100877.19;146613;598;46016;-71
2023/06/20 10:52:07;;;;;;;;;6.67;6.67;;;;;32.60;29.24;100863.53;146622;574;46011;-70
2023/06/20 10:55:08;;;;;;;;;9.50;8.75;;;;;32.79;29.49;100884.31;146615;593;47012;-71
2023/06/20 10:58:12;;;;;;;;;10.67;9.00;;;;;32.03;32.64;100740.47;146618;592;46012;-70
2023/06/20 11:01:14;;;;;;;;;8.33;8.33;;;;;33.68;29.02;101009.87;146613;687;46017;-70
2023/06/20 11:04:30;;;;;;;;;8.33;7.33;;;;;33.73;28.51;101006.03;146620;602;47010;-70
2023/06/20 11:07:28;;;;;;;;;8.67;8.67;;;;;33.77;30.92;101009.47;146615;571;47013;-70
2023/06/20 11:10:29;;;;;;;;;10.67;9.33;;;;;33.83;29.10;100998.44;146617;653;46020;-69
2023/06/20 11:13:32;;;;;;;;;8.00;8.00;;;;;33.93;28.70;100997.16;146610;566;48016;-71
2023/06/20 11:17:08;;;;;;;;;5.67;5.67;;;;;33.96;29.78;100994.34;146619;569;46021;-70
2023/06/20 11:19:59;;;;;;;;;7.00;6.00;;;;;34.00;28.64;100997.75;146615;565;47012;-70
2023/06/20 11:23:01;;;;;;;;;7.00;7.00;;;;;34.08;26.12;100994.78;146619;616;47021;-70
2023/06/20 11:26:17;;;;;;;;;6.00;6.00;;;;;34.06;26.66;100986.78;146617;633;47012;-70
2023/06/20 11:29:13;;;;;;;;;7.00;7.00;;;;;34.05;29.12;100994.91;146622;601;46020;-71
2023/06/20 11:32:26;;;;;;;;;6.00;5.67;;;;;34.08;31.25;100981.31;146614;599;47012;-70
2023/06/20 11:35:51;;;;;;;;;5.00;5.00;;;;;34.14;31.92;100979.22;146622;597;46020;-72
2023/06/20 11:39:08;;;;;;;;;6.00;6.00;;;;;34.22;28.12;100984.31;146615;583;47014;-70
2023/06/20 11:42:19;;;;;;;;;7.67;7.67;;;;;34.26;27.81;100981.41;146620;695;47010;-70
2023/06/20 11:45:22;;;;;;;;;6.50;6.00;;;;;33.41;31.54;100832.56;146612;656;46028;-71
2023/06/20 11:48:30;;;;;;;;;;;;;;;;;;;;;
2023/06/20 11:51:29;;;;;;;;;6.00;5.00;;;;;34.23;28.43;100981.53;146612;573;47916;-70
2023/06/20 11:54:44;;;;;;;;;;;;;;;;;;;;;
2023/06/20 11:57:38;;;;;;;;;6.00;5.00;;;;;34.06;25.52;100973.31;146616;609;46012;-70
2023/06/20 12:01:13;;;;;;;;;6.67;6.67;;;;;32.98;29.09;100801.22;146619;669;46021;-72
2023/06/20 12:04:25;;;;;;;;;7.67;6.00;;;;;33.00;32.53;100810.97;146617;676;47016;-73
2023/06/20 12:07:52;;;;;;;;;6.25;5.25;;;;;34.11;28.64;100975.81;146617;603;46021;-73
2023/06/20 12:11:48;;;;;;;;;7.33;6.33;;;;;33.30;32.02;100824.97;146614;651;46034;-72
2023/06/20 12:14:52;;;;;;;;;6.00;6.00;;;;;34.26;26.98;100976.00;146618;702;46010;-72
2023/06/20 12:18:14;;;;;;;;;7.00;6.25;;;;;32.79;29.30;100704.41;146615;572;46016;-72
2023/06/20 12:21:15;;;;;;;;;5.75;4.75;;;;;34.35;29.91;100966.66;146621;617;47010;-74
2023/06/20 12:24:28;;;;;;;;;7.67;6.33;;;;;34.38;31.51;100973.75;146614;590;46012;-72
2023/06/20 12:27:27;;;;;;;;;8.50;7.00;;;;;34.39;28.04;100968.28;146621;622;46010;-74
2023/06/20 12:30:22;;;;;;;;;5.00;4.67;;;;;34.42;26.71;100965.44;146617;633;46016;-73
2023/06/20 12:33:21;;;;;;;;;6.00;6.00;;;;;34.43;25.76;100958.28;146618;592;46020;-73
2023/06/20 12:36:17;;;;;;;;;6.50;6.50;;;;;34.39;26.17;100948.56;146611;638;47016;-72
2023/06/20 12:39:28;;;;;;;;;8.00;8.00;;;;;33.39;30.65;100775.31;146616;574;48010;-72
2023/06/20 12:42:30;;;;;;;;;10.25;8.50;;;;;34.39;26.94;100935.97;146617;564;46012;-72
2023/06/20 12:45:27;;;;;;;;;6.67;6.67;;;;;34.44;27.90;100942.03;146624;576;46010;-72
2023/06/20 12:48:33;;;;;;;;;8.67;7.33;;;;;34.41;26.08;100931.41;146615;582;46016;-71
2023/06/20 12:51:37;;;;;;;;;6.75;6.75;;;;;34.38;29.14;100927.97;146621;574;46021;-71
2023/06/20 12:54:35;;;;;;;;;7.50;6.75;;;;;34.37;25.57;100928.94;146610;565;46016;-71
2023/06/20 12:57:33;;;;;;;;;7.33;7.33;;;;;34.36;24.96;100932.53;146620;574;47011;-72
2023/06/20 13:00:27;;;;;;;;;7.00;7.00;;;;;34.33;25.82;100930.88;146615;579;46016;-72
2023/06/20 13:03:32;;;;;;;;;6.33;5.00;;;;;33.38;26.39;100770.00;146619;689;46010;-71
2023/06/20 13:06:48;;;;;;;;;7.33;7.00;;;;;34.23;24.21;100925.00;146619;570;46016;-70
2023/06/20 13:10:12;;;;;;;;;6.75;6.75;;;;;34.16;27.89;100925.37;146620;576;46029;-71
2023/06/20 13:13:15;;;;;;;;;6.00;6.00;;;;;34.14;26.88;100927.22;146614;579;46018;-71
2023/06/20 13:16:04;;;;;;;;;7.67;7.67;;;;;34.18;26.79;100923.50;146708;573;46023;-71
2023/06/20 13:19:20;;;;;;;;;;;;;;;;;;;;;
2023/06/20 13:22:39;;;;;;;;;6.00;6.00;;;;;34.20;24.70;100918.87;146632;564;46010;-71
2023/06/20 13:25:44;;;;;;;;;;;;;;;;;;;;;
2023/06/20 13:28:46;;;;;;;;;8.00;7.33;;;;;34.28;24.67;100918.56;146630;609;47010;-71
2023/06/20 13:31:41;;;;;;;;;6.67;6.67;;;;;34.24;23.81;100913.31;146628;565;46012;-71
2023/06/20 13:34:56;;;;;;;;;8.00;5.00;;;;;34.19;27.41;100914.47;146630;565;46010;-70
2023/06/20 13:38:11;;;;;;;;;8.50;8.25;;;;;34.19;31.43;100904.56;146625;659;46015;-70
2023/06/20 13:41:07;;;;;;;;;9.00;7.00;;;;;34.16;30.53;100915.47;146629;584;46033;-70
2023/06/20 13:44:02;;;;;;;;;10.00;9.00;;;;;34.13;30.83;100912.03;146621;564;47016;-70
2023/06/20 13:47:01;;;;;;;;;7.33;7.00;;;;;34.00;27.64;100912.53;146630;661;46012;-70
2023/06/20 13:50:02;;;;;;;;;12.33;12.00;;;;;33.88;34.48;100905.00;146621;625;47012;-70
2023/06/20 13:53:00;;;;;;;;;8.00;8.00;;;;;33.61;36.29;100906.16;146623;571;46010;-70
2023/06/20 13:55:55;;;;;;;;;9.00;9.00;;;;;33.43;35.01;100905.06;146624;671;46016;-70
2023/06/20 13:58:47;;;;;;;;;9.67;9.67;;;;;33.27;34.09;100900.34;146629;659;47028;-70
2023/06/20 14:01:52;;;;;;;;;9.00;8.00;;;;;33.11;35.76;100900.06;146624;597;46017;-70
2023/06/20 14:04:47;;;;;;;;;8.00;8.00;;;;;33.08;33.03;100908.25;146625;633;47010;-70
2023/06/20 14:07:50;;;;;;;;;9.33;9.33;;;;;33.07;34.48;100913.69;146626;648;46015;-70
2023/06/20 14:10:51;;;;;;;;;7.67;7.67;;;;;32.99;30.42;100907.72;146628;579;46020;-70
2023/06/20 14:13:59;;;;;;;;;8.00;7.00;;;;;32.85;30.36;100900.19;146624;691;46016;-70
2023/06/20 14:17:05;;;;;;;;;9.67;8.00;;;;;32.79;28.89;100887.84;146621;571;46021;-71
2023/06/20 14:20:07;;;;;;;;;11.25;10.25;;;;;32.72;34.90;100896.22;146617;611;46012;-71
2023/06/20 14:23:07;;;;;;;;;9.25;9.25;;;;;32.37;36.00;100893.03;146611;578;47010;-71
2023/06/20 14:26:04;;;;;;;;;10.75;10.75;;;;;32.08;34.79;100897.59;146616;605;47012;-70
2023/06/20 14:29:03;;;;;;;;;9.00;8.25;;;;;32.03;34.27;100899.59;146614;615;46010;-70
2023/06/20 14:32:04;;;;;;;;;10.50;9.75;;;;;32.00;35.86;100899.69;146615;564;46017;-70
2023/06/20 14:34:57;;;;;;;;;9.50;9.50;;;;;31.19;35.67;100763.91;146620;660;47010;-70
2023/06/20 14:38:24;;;;;;;;;3.50;3.50;;;;;32.02;35.12;100887.09;146616;564;46016;-71
2023/06/20 14:41:32;;;;;;;;;10.25;10.00;;;;;31.96;34.84;100896.25;146617;602;47020;-70
2023/06/20 14:44:30;;;;;;;;;10.25;10.25;;;;;31.84;33.65;100887.69;146606;565;46016;-70